Skip Navigation LinksHome page > Weather > Current weather Skip Navigation Links

Current Weather

Ronald Reagan Washington National, Washington

For information only: do not use for flight planning or navigation.
Latest weather
Observation time Wednesday, January 27, 2021 10:52 AM EST
Local time Wednesday, January 27, 2021 11:56 AM EST
Flight conditions Visual Meteorological Conditions
Winds
Wind direction North-Northwest (340°)
Wind speed 13 mph
Wind gusting to 21 mph
Visibility 10 mi.
Sky condition
Ceiling 4,500 ft. broken clouds
Cloud layer scattered clouds 3,000 ft.
Cloud layer broken clouds 4,500 ft.
Temperature 42°F
Dewpoint 30°F
Altimeter 30.15 in.Hg
Derived measurements
Relative humidity 62%
Wind chill 35°F
Density altitude -1295 ft.
Sea-level pressure 30.15 in.Hg
Remarks
Automated weather observing station with precipitation discriminator.
Pressure rising rapidly.
METAR KDCA 271552Z 34011G18KT 10SM SCT030 BKN045 06/M01 A3015 RMK AO2 PRESRR SLP209 T00561011

Settings

Location code

InnerDrive.Weather 4.0.6770.0 Release CLR 4.0.30319.42000
Copyright ©2018 Inner Drive Technology. All rights reserved. Portions Copyright ©1986-2018 David Braverman.

Find weather

Site navigation


Skip Navigation Links

Place info

Page info

PayPal - The safer, easier way to pay online!

Return home.

Copyright ©2021 Inner Drive Technology. Purveyors of fine, hand-crafted computer software. Page printed 2021-01-27T16:56:56 UTC.